sensor_id;sensor_type;location;lat;lon;timestamp;temperature;humidity
52113;DHT22;38109;49.488;31.988;2022-09-17T04:03:40;14.80;90.00
52113;DHT22;38109;49.488;31.988;2022-09-17T04:06:06;14.80;90.00
52113;DHT22;38109;49.488;31.988;2022-09-17T04:08:32;14.80;90.10
52113;DHT22;38109;49.488;31.988;2022-09-17T04:10:58;14.80;90.10
52113;DHT22;38109;49.488;31.988;2022-09-17T04:13:24;14.90;90.30
52113;DHT22;38109;49.488;31.988;2022-09-17T04:15:49;14.90;90.30
52113;DHT22;38109;49.488;31.988;2022-09-17T04:18:16;14.90;90.30
52113;DHT22;38109;49.488;31.988;2022-09-17T04:20:42;14.90;90.30
52113;DHT22;38109;49.488;31.988;2022-09-17T04:23:12;14.90;90.30
52113;DHT22;38109;49.488;31.988;2022-09-17T04:25:38;15.00;90.30
52113;DHT22;38109;49.488;31.988;2022-09-17T04:28:04;15.00;90.40
52113;DHT22;38109;49.488;31.988;2022-09-17T04:30:30;15.00;90.40
52113;DHT22;38109;49.488;31.988;2022-09-17T04:32:56;15.00;90.50
52113;DHT22;38109;49.488;31.988;2022-09-17T04:35:21;15.00;90.60
52113;DHT22;38109;49.488;31.988;2022-09-17T04:37:57;15.00;90.70
52113;DHT22;38109;49.488;31.988;2022-09-17T04:40:24;15.10;90.70
52113;DHT22;38109;49.488;31.988;2022-09-17T04:42:54;15.10;90.80
52113;DHT22;38109;49.488;31.988;2022-09-17T04:45:20;15.10;90.80
52113;DHT22;38109;49.488;31.988;2022-09-17T04:47:46;15.10;90.90
52113;DHT22;38109;49.488;31.988;2022-09-17T04:50:12;15.20;91.30
52113;DHT22;38109;49.488;31.988;2022-09-17T04:52:41;15.20;91.10
52113;DHT22;38109;49.488;31.988;2022-09-17T04:55:08;15.20;91.10
52113;DHT22;38109;49.488;31.988;2022-09-17T04:57:33;15.20;91.20
52113;DHT22;38109;49.488;31.988;2022-09-17T04:59:59;15.30;91.50
52113;DHT22;38109;49.488;31.988;2022-09-17T05:02:25;15.30;91.30
52113;DHT22;38109;49.488;31.988;2022-09-17T05:04:50;15.30;91.30
52113;DHT22;38109;49.488;31.988;2022-09-17T05:07:16;15.30;91.30
52113;DHT22;38109;49.488;31.988;2022-09-17T05:09:41;15.40;91.50
52113;DHT22;38109;49.488;31.988;2022-09-17T05:12:07;15.40;91.60
52113;DHT22;38109;49.488;31.988;2022-09-17T05:14:33;15.40;91.60
52113;DHT22;38109;49.488;31.988;2022-09-17T05:16:58;15.40;91.70
52113;DHT22;38109;49.488;31.988;2022-09-17T05:19:24;15.40;91.70
52113;DHT22;38109;49.488;31.988;2022-09-17T05:21:49;15.50;91.80
52113;DHT22;38109;49.488;31.988;2022-09-17T05:24:15;15.40;91.80
52113;DHT22;38109;49.488;31.988;2022-09-17T05:26:41;15.50;91.80
52113;DHT22;38109;49.488;31.988;2022-09-17T05:29:06;15.50;91.70
52113;DHT22;38109;49.488;31.988;2022-09-17T05:31:32;15.50;92.00
52113;DHT22;38109;49.488;31.988;2022-09-17T05:33:57;15.50;92.00
52113;DHT22;38109;49.488;31.988;2022-09-17T05:36:23;15.60;92.10
52113;DHT22;38109;49.488;31.988;2022-09-17T05:38:49;15.60;92.10
52113;DHT22;38109;49.488;31.988;2022-09-17T05:41:15;15.60;92.10
52113;DHT22;38109;49.488;31.988;2022-09-17T05:43:42;15.70;92.00
52113;DHT22;38109;49.488;31.988;2022-09-17T05:46:08;15.70;92.10
52113;DHT22;38109;49.488;31.988;2022-09-17T05:48:35;15.70;92.10
52113;DHT22;38109;49.488;31.988;2022-09-17T05:51:01;15.80;92.10
52113;DHT22;38109;49.488;31.988;2022-09-17T05:53:26;15.80;92.10
52113;DHT22;38109;49.488;31.988;2022-09-17T05:55:58;15.80;92.10
52113;DHT22;38109;49.488;31.988;2022-09-17T05:58:24;15.80;92.10
52113;DHT22;38109;49.488;31.988;2022-09-17T06:00:50;15.80;92.10
52113;DHT22;38109;49.488;31.988;2022-09-17T06:03:17;15.90;92.10
52113;DHT22;38109;49.488;31.988;2022-09-17T06:09:26;15.90;92.00
52113;DHT22;38109;49.488;31.988;2022-09-17T06:41:19;16.20;92.60
52113;DHT22;38109;49.488;31.988;2022-09-17T06:43:45;16.30;92.80
52113;DHT22;38109;49.488;31.988;2022-09-17T06:46:10;16.30;92.70
52113;DHT22;38109;49.488;31.988;2022-09-17T06:48:37;16.30;92.70
52113;DHT22;38109;49.488;31.988;2022-09-17T06:51:07;16.40;92.60
52113;DHT22;38109;49.488;31.988;2022-09-17T06:57:29;16.40;92.10
52113;DHT22;38109;49.488;31.988;2022-09-17T06:59:57;16.50;92.10
52113;DHT22;38109;49.488;31.988;2022-09-17T07:02:23;16.50;92.30
52113;DHT22;38109;49.488;31.988;2022-09-17T07:04:48;16.50;92.20
52113;DHT22;38109;49.488;31.988;2022-09-17T07:07:14;16.50;92.30
52113;DHT22;38109;49.488;31.988;2022-09-17T07:09:40;16.50;92.20
52113;DHT22;38109;49.488;31.988;2022-09-17T07:12:07;16.50;92.10
52113;DHT22;38109;49.488;31.988;2022-09-17T07:14:32;16.50;92.10
52113;DHT22;38109;49.488;31.988;2022-09-17T07:16:58;16.50;92.10
52113;DHT22;38109;49.488;31.988;2022-09-17T07:19:24;16.50;92.10
52113;DHT22;38109;49.488;31.988;2022-09-17T07:21:49;16.50;92.10
52113;DHT22;38109;49.488;31.988;2022-09-17T07:24:15;16.50;92.10
52113;DHT22;38109;49.488;31.988;2022-09-17T07:26:41;16.60;92.10
52113;DHT22;38109;49.488;31.988;2022-09-17T07:29:06;16.60;92.10
52113;DHT22;38109;49.488;31.988;2022-09-17T07:31:32;16.60;92.10
52113;DHT22;38109;49.488;31.988;2022-09-17T07:33:58;16.60;92.10
52113;DHT22;38109;49.488;31.988;2022-09-17T07:36:23;16.60;92.10
52113;DHT22;38109;49.488;31.988;2022-09-17T07:38:49;16.60;92.10
52113;DHT22;38109;49.488;31.988;2022-09-17T07:41:16;16.60;92.00
52113;DHT22;38109;49.488;31.988;2022-09-17T07:43:42;16.60;91.90
52113;DHT22;38109;49.488;31.988;2022-09-17T07:46:16;16.60;91.90
52113;DHT22;38109;49.488;31.988;2022-09-17T07:48:43;16.60;91.80
52113;DHT22;38109;49.488;31.988;2022-09-17T07:51:15;16.60;91.90
52113;DHT22;38109;49.488;31.988;2022-09-17T07:53:40;16.60;91.90
52113;DHT22;38109;49.488;31.988;2022-09-17T07:56:07;16.60;91.90
52113;DHT22;38109;49.488;31.988;2022-09-17T07:58:33;16.60;92.00
52113;DHT22;38109;49.488;31.988;2022-09-17T08:01:02;16.60;92.20
52113;DHT22;38109;49.488;31.988;2022-09-17T08:03:29;16.70;92.20
52113;DHT22;38109;49.488;31.988;2022-09-17T08:06:07;16.70;92.20
52113;DHT22;38109;49.488;31.988;2022-09-17T08:08:34;16.70;92.30
52113;DHT22;38109;49.488;31.988;2022-09-17T15:41:35;15.50;96.40
52113;DHT22;38109;49.488;31.988;2022-09-17T15:46:39;15.50;96.40
52113;DHT22;38109;49.488;31.988;2022-09-17T15:49:33;15.50;96.70
52113;DHT22;38109;49.488;31.988;2022-09-17T15:52:28;15.50;96.40
52113;DHT22;38109;49.488;31.988;2022-09-17T15:54:58;15.50;96.50
52113;DHT22;38109;49.488;31.988;2022-09-17T15:57:25;15.50;96.90
52113;DHT22;38109;49.488;31.988;2022-09-17T15:59:52;15.50;96.80
52113;DHT22;38109;49.488;31.988;2022-09-17T16:02:27;15.50;96.70
52113;DHT22;38109;49.488;31.988;2022-09-17T16:07:45;15.50;96.40
52113;DHT22;38109;49.488;31.988;2022-09-17T16:10:12;15.50;96.80
52113;DHT22;38109;49.488;31.988;2022-09-17T16:12:38;15.50;96.80
52113;DHT22;38109;49.488;31.988;2022-09-17T16:15:05;15.50;96.80
52113;DHT22;38109;49.488;31.988;2022-09-17T16:20:26;15.50;96.90
52113;DHT22;38109;49.488;31.988;2022-09-17T16:22:52;15.50;96.80
52113;DHT22;38109;49.488;31.988;2022-09-17T16:25:23;15.50;96.90
52113;DHT22;38109;49.488;31.988;2022-09-17T16:28:01;15.50;96.80
52113;DHT22;38109;49.488;31.988;2022-09-17T16:30:27;15.50;96.80
52113;DHT22;38109;49.488;31.988;2022-09-17T16:32:53;15.50;97.00
52113;DHT22;38109;49.488;31.988;2022-09-17T16:35:21;15.50;97.00
52113;DHT22;38109;49.488;31.988;2022-09-17T16:37:52;15.50;97.00
52113;DHT22;38109;49.488;31.988;2022-09-17T16:40:19;15.50;97.00
52113;DHT22;38109;49.488;31.988;2022-09-17T16:42:45;15.50;97.10
52113;DHT22;38109;49.488;31.988;2022-09-17T16:45:11;15.50;97.20
52113;DHT22;38109;49.488;31.988;2022-09-17T16:47:39;15.50;97.20
52113;DHT22;38109;49.488;31.988;2022-09-17T16:50:12;15.50;97.20
52113;DHT22;38109;49.488;31.988;2022-09-17T16:52:38;15.50;97.00
52113;DHT22;38109;49.488;31.988;2022-09-17T16:55:05;15.50;97.10
52113;DHT22;38109;49.488;31.988;2022-09-17T16:57:31;15.40;97.00
52113;DHT22;38109;49.488;31.988;2022-09-17T16:59:58;15.50;97.00
52113;DHT22;38109;49.488;31.988;2022-09-17T17:02:24;15.40;97.00
52113;DHT22;38109;49.488;31.988;2022-09-17T17:04:49;15.50;97.30
52113;DHT22;38109;49.488;31.988;2022-09-17T17:07:15;15.40;97.00
52113;DHT22;38109;49.488;31.988;2022-09-17T17:09:41;15.40;97.00
52113;DHT22;38109;49.488;31.988;2022-09-17T17:12:07;15.40;97.00
52113;DHT22;38109;49.488;31.988;2022-09-17T17:14:33;15.40;97.30
52113;DHT22;38109;49.488;31.988;2022-09-17T17:16:58;15.40;97.10
52113;DHT22;38109;49.488;31.988;2022-09-17T17:19:24;15.40;97.10
52113;DHT22;38109;49.488;31.988;2022-09-17T17:21:52;15.40;97.10
52113;DHT22;38109;49.488;31.988;2022-09-17T17:24:18;15.40;96.90
52113;DHT22;38109;49.488;31.988;2022-09-17T17:26:43;15.40;97.10
52113;DHT22;38109;49.488;31.988;2022-09-17T17:29:09;15.40;97.10
52113;DHT22;38109;49.488;31.988;2022-09-17T17:31:35;15.40;97.20
52113;DHT22;38109;49.488;31.988;2022-09-17T17:34:01;15.40;97.20
52113;DHT22;38109;49.488;31.988;2022-09-17T17:36:27;15.40;97.20
52113;DHT22;38109;49.488;31.988;2022-09-17T17:38:56;15.40;97.20
52113;DHT22;38109;49.488;31.988;2022-09-17T17:41:22;15.40;97.00
52113;DHT22;38109;49.488;31.988;2022-09-17T17:43:54;15.40;97.00
52113;DHT22;38109;49.488;31.988;2022-09-17T17:46:20;15.40;97.10
52113;DHT22;38109;49.488;31.988;2022-09-17T17:48:47;15.40;97.10
52113;DHT22;38109;49.488;31.988;2022-09-17T17:51:13;15.40;97.10
52113;DHT22;38109;49.488;31.988;2022-09-17T17:53:41;15.30;97.10
52113;DHT22;38109;49.488;31.988;2022-09-17T17:56:07;15.30;97.20
52113;DHT22;38109;49.488;31.988;2022-09-17T17:58:34;15.40;97.10
52113;DHT22;38109;49.488;31.988;2022-09-17T18:01:18;15.30;97.10
52113;DHT22;38109;49.488;31.988;2022-09-17T18:03:44;15.30;97.00
52113;DHT22;38109;49.488;31.988;2022-09-17T18:06:09;15.30;97.20
52113;DHT22;38109;49.488;31.988;2022-09-17T18:08:37;15.30;97.30
52113;DHT22;38109;49.488;31.988;2022-09-17T18:11:03;15.30;97.30
52113;DHT22;38109;49.488;31.988;2022-09-17T18:13:30;15.30;97.30
52113;DHT22;38109;49.488;31.988;2022-09-17T18:15:57;15.30;97.20
52113;DHT22;38109;49.488;31.988;2022-09-17T18:18:25;15.30;97.30
52113;DHT22;38109;49.488;31.988;2022-09-17T18:20:51;15.30;97.20
52113;DHT22;38109;49.488;31.988;2022-09-17T18:23:20;15.30;97.40
52113;DHT22;38109;49.488;31.988;2022-09-17T18:25:56;15.30;97.50
52113;DHT22;38109;49.488;31.988;2022-09-17T18:28:23;15.30;97.40
52113;DHT22;38109;49.488;31.988;2022-09-17T18:30:49;15.20;97.80
52113;DHT22;38109;49.488;31.988;2022-09-17T18:33:23;15.20;97.80
52113;DHT22;38109;49.488;31.988;2022-09-17T18:35:50;15.30;97.60
52113;DHT22;38109;49.488;31.988;2022-09-17T18:38:19;15.20;97.70
52113;DHT22;38109;49.488;31.988;2022-09-17T18:40:44;15.30;97.60
52113;DHT22;38109;49.488;31.988;2022-09-17T18:43:10;15.30;97.60
52113;DHT22;38109;49.488;31.988;2022-09-17T18:45:35;15.30;97.50
52113;DHT22;38109;49.488;31.988;2022-09-17T18:48:03;15.30;97.60
52113;DHT22;38109;49.488;31.988;2022-09-17T18:50:29;15.30;97.60
52113;DHT22;38109;49.488;31.988;2022-09-17T18:52:55;15.20;97.70
52113;DHT22;38109;49.488;31.988;2022-09-17T18:55:21;15.30;97.80
52113;DHT22;38109;49.488;31.988;2022-09-17T18:57:50;15.20;97.70
52113;DHT22;38109;49.488;31.988;2022-09-17T19:00:20;15.30;97.60
52113;DHT22;38109;49.488;31.988;2022-09-17T19:02:47;15.20;97.60
52113;DHT22;38109;49.488;31.988;2022-09-17T19:05:14;15.30;97.60
52113;DHT22;38109;49.488;31.988;2022-09-17T19:07:46;15.30;97.70
52113;DHT22;38109;49.488;31.988;2022-09-17T19:10:12;15.20;97.70
52113;DHT22;38109;49.488;31.988;2022-09-17T19:12:39;15.30;98.00
52113;DHT22;38109;49.488;31.988;2022-09-17T19:15:06;15.30;97.90
52113;DHT22;38109;49.488;31.988;2022-09-17T19:17:32;15.20;97.90
52113;DHT22;38109;49.488;31.988;2022-09-17T19:19:58;15.20;97.80
52113;DHT22;38109;49.488;31.988;2022-09-17T19:22:24;15.30;97.80
52113;DHT22;38109;49.488;31.988;2022-09-17T19:24:49;15.30;97.80
52113;DHT22;38109;49.488;31.988;2022-09-17T19:27:15;15.30;97.80
52113;DHT22;38109;49.488;31.988;2022-09-17T19:29:40;15.30;97.80
52113;DHT22;38109;49.488;31.988;2022-09-17T19:32:06;15.30;97.70
52113;DHT22;38109;49.488;31.988;2022-09-17T19:34:32;15.30;97.80
52113;DHT22;38109;49.488;31.988;2022-09-17T19:36:58;15.20;97.70
52113;DHT22;38109;49.488;31.988;2022-09-17T19:39:24;15.30;97.80
52113;DHT22;38109;49.488;31.988;2022-09-17T19:41:49;15.30;97.80
52113;DHT22;38109;49.488;31.988;2022-09-17T19:44:15;15.30;97.80
52113;DHT22;38109;49.488;31.988;2022-09-17T19:46:41;15.20;97.80
52113;DHT22;38109;49.488;31.988;2022-09-17T19:49:06;15.30;97.90
52113;DHT22;38109;49.488;31.988;2022-09-17T19:51:34;15.20;97.80
52113;DHT22;38109;49.488;31.988;2022-09-17T19:54:00;15.30;97.80
52113;DHT22;38109;49.488;31.988;2022-09-17T19:56:26;15.30;97.70
52113;DHT22;38109;49.488;31.988;2022-09-17T19:58:52;15.30;97.80
52113;DHT22;38109;49.488;31.988;2022-09-17T20:01:19;15.30;97.90
52113;DHT22;38109;49.488;31.988;2022-09-17T20:03:45;15.20;97.60
52113;DHT22;38109;49.488;31.988;2022-09-17T20:06:13;15.30;97.70
52113;DHT22;38109;49.488;31.988;2022-09-17T20:08:48;15.20;97.70
52113;DHT22;38109;49.488;31.988;2022-09-17T20:11:15;15.30;97.60
52113;DHT22;38109;49.488;31.988;2022-09-17T20:13:40;15.30;97.70
52113;DHT22;38109;49.488;31.988;2022-09-17T20:16:09;15.30;97.70
52113;DHT22;38109;49.488;31.988;2022-09-17T20:18:36;15.30;97.80
52113;DHT22;38109;49.488;31.988;2022-09-17T20:21:09;15.30;97.80
52113;DHT22;38109;49.488;31.988;2022-09-17T20:23:35;15.30;97.60
52113;DHT22;38109;49.488;31.988;2022-09-17T20:26:01;15.30;97.70
52113;DHT22;38109;49.488;31.988;2022-09-17T20:28:27;15.20;97.50
52113;DHT22;38109;49.488;31.988;2022-09-17T20:33:29;15.30;97.40
52113;DHT22;38109;49.488;31.988;2022-09-17T20:36:00;15.30;97.70
52113;DHT22;38109;49.488;31.988;2022-09-17T20:38:26;15.20;97.40
52113;DHT22;38109;49.488;31.988;2022-09-17T20:40:52;15.20;97.60
52113;DHT22;38109;49.488;31.988;2022-09-17T20:43:19;15.20;97.70
52113;DHT22;38109;49.488;31.988;2022-09-17T20:45:52;15.20;97.60
52113;DHT22;38109;49.488;31.988;2022-09-17T20:48:18;15.20;97.50
